Welcome to Northern Hawkes Bay. New Zealand.
PWS Header
      nz Flag



Hit Counter


W3C Valid W3C Valid logo


    Wairoa

Select any of the Stations below to visit their websites.










Historic Data from Weather Underground
Select the location of interest below. Wairoa is the default. Please have patience, this Data is slow to load in.
Northern Hawkes Bay Historical Data
Daily Summary for October 20, 2017 Units:  Metric    English   Both
« Previous Day
Next Day »
Daily Weekly Monthly Yearly Custom
  High: Low: Average:
Temperature: 18.8 °C 7.4 °C 12 °C
Dew Point: 11.2 °C 6.9 °C 9.1 °C
Humidity: 99% 49% 84%
Wind Speed: 9.7km/h 0.0km/h 2.6km/h
Wind Gust: 18.3km/h - -
Wind- - WSW
Pressure: 1022.9 hPa 991.8 hPa -
Precipitation: 0.0 mm    
Historical Graphs
 
 
Tabular Data for October 20, 2017
Time Temperature Dew Point Pressure Wind Wind Speed Wind Gust Humidity Rainfall Rate (Hourly) solar
00:01 10.8 °C 8.4 °C 1022.9 hPa Calm   2.6 km/h 85% 0.0 mm 0 W/m2
00:06 10.7 °C 8.3 °C 1022.9 hPa Calm   2.6 km/h 85% 0.0 mm 0 W/m2
00:11 10.7 °C 8.3 °C 1022.9 hPa Calm   2.6 km/h 85% 0.0 mm 0 W/m2
00:16 10.8 °C 8.6 °C 1022.9 hPa Calm   1.1 km/h 86% 0.0 mm 0 W/m2
00:21 10.7 °C 8.4 °C 1022.9 hPa Calm   2.6 km/h 86% 0.0 mm 0 W/m2
00:26 10.7 °C 8.6 °C 1022.6 hPa Calm   3.5 km/h 87% 0.0 mm 0 W/m2
00:31 10.7 °C 8.8 °C 1022.6 hPa NNW 1.1 km/h 5.0 km/h 88% 0.0 mm 0 W/m2
00:36 10.6 °C 8.9 °C 1022.6 hPa Calm   5.0 km/h 89% 0.0 mm 0 W/m2
00:41 10.7 °C 8.9 °C 1022.6 hPa NNW 2.6 km/h 3.5 km/h 89% 0.0 mm 0 W/m2
00:46 10.6 °C 8.9 °C 1022.6 hPa NNW 2.6 km/h 6.1 km/h 89% 0.0 mm 0 W/m2
00:51 10.6 °C 8.9 °C 1022.6 hPa NNW 1.1 km/h 6.1 km/h 89% 0.0 mm 0 W/m2
00:56 10.7 °C 8.8 °C 1022.6 hPa North 3.5 km/h 6.1 km/h 88% 0.0 mm 0 W/m2
01:01 10.6 °C 8.7 °C 1022.6 hPa Calm   6.1 km/h 88% 0.0 mm 0 W/m2
01:06 10.6 °C 8.7 °C 1022.2 hPa North 1.1 km/h 6.1 km/h 88% 0.0 mm 0 W/m2
01:11 10.5 °C 8.8 °C 1022.2 hPa NNW 1.1 km/h 6.1 km/h 89% 0.0 mm 0 W/m2
01:16 10.3 °C 8.6 °C 1022.2 hPa NNW 3.5 km/h 7.2 km/h 89% 0.0 mm 0 W/m2
01:21 10.5 °C 8.8 °C 1022.2 hPa NNW 3.5 km/h 7.2 km/h 89% 0.0 mm 0 W/m2
01:26 10.4 °C 8.7 °C 1022.2 hPa NNW 3.5 km/h 7.2 km/h 89% 0.0 mm 0 W/m2
01:29 10.4 °C 8.7 °C 1022.2 hPa NNW 3.5 km/h 7.2 km/h 89% 0.0 mm 0 W/m2
01:34 10.4 °C 8.7 °C 1021.9 hPa NNW 1.1 km/h 7.2 km/h 89% 0.0 mm 0 W/m2
01:39 10.4 °C 8.7 °C 1021.9 hPa North 2.6 km/h 6.1 km/h 89% 0.0 mm 0 W/m2
01:44 10.4 °C 8.7 °C 1021.9 hPa North 1.1 km/h 6.1 km/h 89% 0.0 mm 0 W/m2
01:49 10.3 °C 8.6 °C 1021.6 hPa North 2.6 km/h 6.1 km/h 89% 0.0 mm 0 W/m2
01:54 10.3 °C 8.6 °C 1021.6 hPa NNW 2.6 km/h 6.1 km/h 89% 0.0 mm 0 W/m2
01:59 10.3 °C 8.4 °C 1021.6 hPa NNW 2.6 km/h 5.0 km/h 88% 0.0 mm 0 W/m2
02:05 10.3 °C 8.4 °C 1021.6 hPa NNW 2.6 km/h 6.1 km/h 88% 0.0 mm 0 W/m2
02:10 10.3 °C 8.4 °C 1021.2 hPa NW 3.5 km/h 8.7 km/h 88% 0.0 mm 0 W/m2
02:15 10.3 °C 8.2 °C 1020.9 hPa NNW 1.1 km/h 8.7 km/h 87% 0.0 mm 0 W/m2
02:20 10.1 °C 8.1 °C 1021.2 hPa NNW 1.1 km/h 6.1 km/h 87% 0.0 mm 0 W/m2
02:25 10.3 °C 8.4 °C 1021.2 hPa NW 2.6 km/h 7.2 km/h 88% 0.0 mm 0 W/m2
02:30 10.3 °C 8.4 °C 1021.2 hPa NW 1.1 km/h 7.2 km/h 88% 0.0 mm 0 W/m2
02:36 10.0 °C 8.3 °C 1020.9 hPa NW 1.1 km/h 5.0 km/h 89% 0.0 mm 0 W/m2
02:41 10.2 °C 8.4 °C 1021.2 hPa NW 1.1 km/h 5.0 km/h 89% 0.0 mm 0 W/m2
02:46 10.2 °C 8.6 °C 1021.2 hPa NNW 1.1 km/h 5.0 km/h 90% 0.0 mm 0 W/m2
02:51 10.2 °C 8.6 °C 1020.9 hPa NNW 1.1 km/h 5.0 km/h 90% 0.0 mm 0 W/m2
02:56 10.2 °C 8.6 °C 1020.9 hPa NNW 3.5 km/h 6.1 km/h 90% 0.0 mm 0 W/m2
03:01 10.1 °C 8.6 °C 1020.9 hPa Calm   6.1 km/h 90% 0.0 mm 0 W/m2
03:06 10.1 °C 8.6 °C 1020.9 hPa NNW 2.6 km/h 6.1 km/h 90% 0.0 mm 0 W/m2
03:11 10.1 °C 8.6 °C 1020.9 hPa NNW 2.6 km/h 6.1 km/h 90% 0.0 mm 0 W/m2
03:16 10.0 °C 8.4 °C 1020.9 hPa NNW 3.5 km/h 6.1 km/h 90% 0.0 mm 0 W/m2
03:21 10.1 °C 8.6 °C 1020.9 hPa Calm   5.0 km/h 90% 0.0 mm 0 W/m2
03:26 10.1 °C 8.6 °C 1020.5 hPa Calm   5.0 km/h 90% 0.0 mm 0 W/m2
03:31 10.1 °C 8.4 °C 1020.5 hPa North 1.1 km/h 3.5 km/h 89% 0.0 mm 0 W/m2
03:36 9.9 °C 8.3 °C 1020.5 hPa Calm   3.5 km/h 90% 0.0 mm 0 W/m2
03:41 10.1 °C 8.4 °C 1020.5 hPa North 1.1 km/h 5.0 km/h 89% 0.0 mm 0 W/m2
03:46 10.1 °C 8.4 °C 1020.2 hPa North 1.1 km/h 5.0 km/h 89% 0.0 mm 0 W/m2
03:51 10.1 °C 8.4 °C 1020.2 hPa NNW 1.1 km/h 5.0 km/h 89% 0.0 mm 0 W/m2
03:56 10.2 °C 8.6 °C 1020.2 hPa NW 2.6 km/h 5.0 km/h 90% 0.0 mm 0 W/m2
04:01 10.1 °C 8.6 °C 1020.2 hPa NNW 3.5 km/h 6.1 km/h 90% 0.0 mm 0 W/m2
04:06 10.1 °C 8.7 °C 1020.2 hPa NNW 2.6 km/h 6.1 km/h 91% 0.0 mm 0 W/m2
04:11 10.0 °C 8.6 °C 1020.2 hPa NNW 1.1 km/h 5.0 km/h 91% 0.0 mm 0 W/m2
04:16 10.1 °C 8.7 °C 1020.2 hPa Calm   5.0 km/h 91% 0.0 mm 0 W/m2
04:21 10.0 °C 8.8 °C 1020.2 hPa North 1.1 km/h 3.5 km/h 92% 0.0 mm 0 W/m2
04:26 10.0 °C 8.8 °C 1020.2 hPa Calm   5.0 km/h 92% 0.0 mm 0 W/m2
04:31 10.0 °C 8.8 °C 1020.2 hPa Calm   5.0 km/h 92% 0.0 mm 0 W/m2
04:36 10.0 °C 8.8 °C 1019.9 hPa North 1.1 km/h 3.5 km/h 92% 0.0 mm 0 W/m2
04:41 10.0 °C 8.9 °C 1019.5 hPa NNW 1.1 km/h 3.5 km/h 93% 0.0 mm 0 W/m2
04:46 10.0 °C 8.9 °C 1019.5 hPa Calm   3.5 km/h 93% 0.0 mm 0 W/m2
04:51 10.0 °C 8.9 °C 1019.5 hPa Calm   3.5 km/h 93% 0.0 mm 0 W/m2
04:56 10.0 °C 8.9 °C 1019.5 hPa Calm   2.6 km/h 93% 0.0 mm 0 W/m2
05:01 10.0 °C 8.9 °C 1019.5 hPa NNE 2.6 km/h 3.5 km/h 93% 0.0 mm 0 W/m2
05:06 10.0 °C 8.9 °C 1019.5 hPa Calm   3.5 km/h 93% 0.0 mm 0 W/m2
05:11 10.0 °C 8.9 °C 1019.5 hPa Calm   3.5 km/h 93% 0.0 mm 0 W/m2
05:16 10.0 °C 8.9 °C 1019.5 hPa North 1.1 km/h 2.6 km/h 93% 0.0 mm 0 W/m2
05:21 10.0 °C 8.9 °C 1019.5 hPa Calm   2.6 km/h 93% 0.0 mm 0 W/m2
05:26 10.0 °C 8.9 °C 1019.5 hPa Calm   2.6 km/h 93% 0.0 mm 0 W/m2
05:31 10.0 °C 9.1 °C 1019.5 hPa Calm   2.6 km/h 94% 0.0 mm 0 W/m2
05:37 10.0 °C 9.1 °C 1019.5 hPa North 1.1 km/h 3.5 km/h 94% 0.0 mm 0 W/m2
05:42 10.0 °C 9.1 °C 1019.5 hPa North 2.6 km/h 5.0 km/h 94% 0.0 mm 0 W/m2
05:47 10.0 °C 8.9 °C 1019.9 hPa Calm   5.0 km/h 93% 0.0 mm 0 W/m2
05:52 10.0 °C 8.9 °C 1019.5 hPa Calm   5.0 km/h 93% 0.0 mm 0 W/m2
05:57 10.1 °C 9.0 °C 1019.5 hPa NNW 2.6 km/h 3.5 km/h 93% 0.0 mm 0 W/m2
06:02 10.1 °C 9.0 °C 1019.5 hPa NW 1.1 km/h 5.0 km/h 93% 0.0 mm 0 W/m2
06:07 10.1 °C 9.0 °C 1019.9 hPa Calm   5.0 km/h 93% 0.0 mm 0 W/m2
06:12 10.1 °C 9.0 °C 1019.5 hPa NNW 1.1 km/h 2.6 km/h 93% 0.0 mm 0 W/m2
06:17 10.0 °C 9.1 °C 1019.9 hPa NW 1.1 km/h 3.5 km/h 94% 0.0 mm 0 W/m2
06:22 10.0 °C 9.1 °C 1019.5 hPa NW 1.1 km/h 5.0 km/h 94% 0.0 mm 0 W/m2
06:27 10.0 °C 9.1 °C 1019.5 hPa NW 1.1 km/h 5.0 km/h 94% 0.0 mm 0 W/m2
06:32 10.0 °C 9.1 °C 1019.5 hPa NW 2.6 km/h 5.0 km/h 94% 0.0 mm 0 W/m2
06:37 10.0 °C 9.1 °C 1019.5 hPa NW 1.1 km/h 5.0 km/h 94% 0.0 mm 0 W/m2
06:42 10.0 °C 9.1 °C 1019.9 hPa NW 2.6 km/h 5.0 km/h 94% 0.0 mm 2 W/m2
06:47 10.0 °C 9.2 °C 1019.9 hPa NW 3.5 km/h 5.0 km/h 95% 0.0 mm 5 W/m2
06:52 10.0 °C 9.2 °C 1019.5 hPa NNW 2.6 km/h 7.2 km/h 95% 0.0 mm 9 W/m2
06:57 10.0 °C 9.2 °C 1019.9 hPa NNW 2.6 km/h 7.2 km/h 95% 0.0 mm 14 W/m2
07:02 10.0 °C 9.2 °C 1019.5 hPa NNW 2.6 km/h 6.1 km/h 95% 0.0 mm 13 W/m2
07:07 10.0 °C 9.2 °C 1019.9 hPa NNW 1.1 km/h 5.0 km/h 95% 0.0 mm 17 W/m2
07:12 10.0 °C 9.2 °C 1019.5 hPa NNW 2.6 km/h 6.1 km/h 95% 0.0 mm 22 W/m2
07:17 10.1 °C 9.3 °C 1019.5 hPa NW 2.6 km/h 6.1 km/h 95% 0.0 mm 23 W/m2
07:22 10.1 °C 9.3 °C 1019.5 hPa NW 5.0 km/h 7.2 km/h 95% 0.0 mm 25 W/m2
07:27 10.2 °C 9.4 °C 1019.5 hPa NW 3.5 km/h 7.2 km/h 95% 0.0 mm 34 W/m2
07:32 10.2 °C 9.3 °C 1019.5 hPa NNW 2.6 km/h 6.1 km/h 94% 0.0 mm 47 W/m2
07:37 10.3 °C 9.4 °C 1019.5 hPa North 1.1 km/h 6.1 km/h 94% 0.0 mm 54 W/m2
07:42 10.5 °C 9.6 °C 1019.5 hPa NNW 3.5 km/h 6.1 km/h 94% 0.0 mm 62 W/m2
07:47 10.6 °C 9.7 °C 1019.2 hPa NNW 1.1 km/h 5.0 km/h 94% 0.0 mm 68 W/m2
07:52 10.6 °C 9.5 °C 1019.5 hPa NW 2.6 km/h 6.1 km/h 93% 0.0 mm 66 W/m2
07:57 10.7 °C 9.4 °C 1019.5 hPa NW 2.6 km/h 7.2 km/h 92% 0.0 mm 71 W/m2
08:02 10.8 °C 9.4 °C 1019.5 hPa NW 2.6 km/h 7.2 km/h 91% 0.0 mm 70 W/m2
08:08 10.8 °C 9.2 °C 1019.9 hPa NW 2.6 km/h 8.7 km/h 90% 0.0 mm 63 W/m2
08:13 10.8 °C 9.2 °C 1019.5 hPa NW 3.5 km/h 8.7 km/h 90% 0.0 mm 65 W/m2
08:18 11.0 °C 9.3 °C 1019.5 hPa NNW 3.5 km/h 6.1 km/h 89% 0.0 mm 65 W/m2
08:23 11.0 °C 9.1 °C 1019.5 hPa NW 3.5 km/h 6.1 km/h 88% 0.0 mm 60 W/m2
08:28 11.1 °C 9.2 °C 1019.5 hPa NW 2.6 km/h 6.1 km/h 88% 0.0 mm 55 W/m2
08:33 11.1 °C 9.2 °C 1019.5 hPa NW 3.5 km/h 6.1 km/h 88% 0.0 mm 64 W/m2
08:38 11.2 °C 9.1 °C 1019.5 hPa NW 2.6 km/h 6.1 km/h 87% 0.0 mm 76 W/m2
08:43 11.3 °C 9.2 °C 1019.5 hPa NW 1.1 km/h 6.1 km/h 87% 0.0 mm 95 W/m2
08:48 11.4 °C 9.3 °C 1019.5 hPa NNW 2.6 km/h 6.1 km/h 87% 0.0 mm 71 W/m2
08:53 11.6 °C 9.3 °C 1019.5 hPa NNW 5.0 km/h 6.1 km/h 86% 0.0 mm 102 W/m2
08:58 11.7 °C 9.4 °C 1019.2 hPa NW 3.5 km/h 7.2 km/h 86% 0.0 mm 118 W/m2
09:03 12.0 °C 9.6 °C 1019.2 hPa Calm   7.2 km/h 85% 0.0 mm 122 W/m2
09:08 12.2 °C 9.6 °C 1019.2 hPa Calm   5.0 km/h 84% 0.0 mm 113 W/m2
09:13 12.5 °C 9.9 °C 1019.2 hPa WSW 6.1 km/h 7.2 km/h 84% 0.0 mm 103 W/m2
09:18 12.3 °C 9.3 °C 1019.5 hPa SW 5.0 km/h 9.7 km/h 82% 0.0 mm 101 W/m2
09:23 12.2 °C 9.2 °C 1019.5 hPa WSW 6.1 km/h 9.7 km/h 82% 0.0 mm 109 W/m2
09:28 12.1 °C 9.1 °C 1019.5 hPa WSW 5.0 km/h 12.2 km/h 82% 0.0 mm 118 W/m2
09:33 12.2 °C 9.2 °C 1019.5 hPa WSW 1.1 km/h 12.2 km/h 82% 0.0 mm 123 W/m2
09:38 12.3 °C 9.3 °C 1019.5 hPa WSW 1.1 km/h 11.1 km/h 82% 0.0 mm 122 W/m2
09:43 12.3 °C 9.3 °C 1019.5 hPa WSW 6.1 km/h 12.2 km/h 82% 0.0 mm 138 W/m2
09:48 12.3 °C 9.3 °C 1019.2 hPa WSW 6.1 km/h 12.2 km/h 82% 0.0 mm 141 W/m2
09:53 12.5 °C 9.7 °C 1019.5 hPa WSW 7.2 km/h 11.1 km/h 83% 0.0 mm 128 W/m2
09:58 12.5 °C 9.7 °C 1019.5 hPa WSW 5.0 km/h 12.2 km/h 83% 0.0 mm 108 W/m2
10:03 12.6 °C 9.8 °C 1019.2 hPa WSW 6.1 km/h 12.2 km/h 83% 0.0 mm 95 W/m2
10:08 12.5 °C 9.7 °C 1019.5 hPa SW 6.1 km/h 14.8 km/h 83% 0.0 mm 100 W/m2
10:13 12.5 °C 9.7 °C 1019.5 hPa SW 7.2 km/h 14.8 km/h 83% 0.0 mm 107 W/m2
10:18 12.5 °C 9.7 °C 1019.5 hPa SW 7.2 km/h 14.8 km/h 83% 0.0 mm 107 W/m2
10:23 12.5 °C 9.7 °C 1019.5 hPa SW 7.2 km/h 14.8 km/h 83% 0.0 mm 107 W/m2
10:28 12.5 °C 9.7 °C 1019.5 hPa SW 7.2 km/h 14.8 km/h 83% 0.0 mm 107 W/m2
10:33 12.5 °C 9.7 °C 1019.5 hPa SW 7.2 km/h 14.8 km/h 83% 0.0 mm 107 W/m2
10:38 12.5 °C 9.7 °C 1019.5 hPa SW 7.2 km/h 14.8 km/h 83% 0.0 mm 107 W/m2
10:43 12.5 °C 9.7 °C 1019.5 hPa SW 7.2 km/h 14.8 km/h 83% 0.0 mm 107 W/m2
10:48 12.5 °C 9.7 °C 1019.5 hPa SW 7.2 km/h 14.8 km/h 83% 0.0 mm 107 W/m2
10:53 12.5 °C 9.7 °C 1019.5 hPa SW 7.2 km/h 14.8 km/h 83% 0.0 mm 107 W/m2
10:58 12.5 °C 9.7 °C 1019.5 hPa SW 7.2 km/h 14.8 km/h 83% 0.0 mm 107 W/m2
11:03 12.5 °C 9.7 °C 1019.5 hPa SW 7.2 km/h 14.8 km/h 83% 0.0 mm 107 W/m2
11:08 12.5 °C 9.7 °C 1019.5 hPa SW 7.2 km/h 14.8 km/h 83% 0.0 mm 107 W/m2
11:13 12.5 °C 9.7 °C 1019.5 hPa SW 7.2 km/h 14.8 km/h 83% 0.0 mm 107 W/m2
11:18 12.5 °C 9.7 °C 1019.5 hPa SW 7.2 km/h 14.8 km/h 83% 0.0 mm 107 W/m2
11:23 12.5 °C 9.7 °C 1019.5 hPa SW 7.2 km/h 14.8 km/h 83% 0.0 mm 107 W/m2
11:28 12.5 °C 9.7 °C 1019.5 hPa SW 7.2 km/h 14.8 km/h 83% 0.0 mm 107 W/m2
11:33 18.8 °C 7.8 °C 991.8 hPa SE 7.2 km/h 14.8 km/h 49% 0.0 mm 308 W/m2
11:39 13.5 °C 9.9 °C 1011.1 hPa SSW 2.6 km/h 14.8 km/h 79% 0.0 mm 0 W/m2
11:44 13.7 °C 9.9 °C 1011.1 hPa SSW 7.2 km/h 13.4 km/h 78% 0.0 mm 0 W/m2
11:49 13.5 °C 9.6 °C 1011.1 hPa SSW 9.7 km/h 12.2 km/h 77% 0.0 mm 0 W/m2
11:54 13.4 °C 9.4 °C 1011.1 hPa SSW 7.2 km/h 13.4 km/h 77% 0.0 mm 0 W/m2
11:59 13.3 °C 9.3 °C 1011.1 hPa SW 6.1 km/h 13.4 km/h 77% 0.0 mm 0 W/m2
12:04 13.4 °C 9.3 °C 1011.1 hPa SSW 2.6 km/h 12.2 km/h 76% 0.0 mm 0 W/m2
12:10 13.3 °C 8.8 °C 1011.1 hPa SW 7.2 km/h 12.2 km/h 74% 0.0 mm 0 W/m2
12:16 13.3 °C 8.9 °C 1011.1 hPa SW 5.0 km/h 12.2 km/h 75% 0.0 mm 0 W/m2
12:21 13.4 °C 8.4 °C 1010.7 hPa SW 6.1 km/h 12.2 km/h 72% 0.0 mm 0 W/m2
12:26 13.3 °C 8.8 °C 1011.1 hPa SW 5.0 km/h 12.2 km/h 74% 0.0 mm 0 W/m2
12:31 13.4 °C 9.1 °C 1010.7 hPa SW 2.6 km/h 12.2 km/h 75% 0.0 mm 0 W/m2
12:36 13.5 °C 9.3 °C 1010.7 hPa WSW 3.5 km/h 9.7 km/h 76% 0.0 mm 0 W/m2
12:41 13.5 °C 9.2 °C 1010.7 hPa WSW 8.7 km/h 11.1 km/h 75% 0.0 mm 0 W/m2
12:46 13.5 °C 9.2 °C 1010.7 hPa WSW 2.6 km/h 12.2 km/h 75% 0.0 mm 0 W/m2
12:51 13.7 °C 9.2 °C 1010.7 hPa WSW 2.6 km/h 12.2 km/h 74% 0.0 mm 207 W/m2
12:56 13.8 °C 8.8 °C 1010.7 hPa SW 3.5 km/h 11.1 km/h 72% 0.0 mm 206 W/m2
13:01 13.8 °C 8.8 °C 1011.1 hPa SW 6.1 km/h 13.4 km/h 72% 0.0 mm 192 W/m2
13:06 13.8 °C 8.8 °C 1010.7 hPa SW 2.6 km/h 13.4 km/h 72% 0.0 mm 203 W/m2
13:11 14.0 °C 8.8 °C 1010.7 hPa WSW 2.6 km/h 9.7 km/h 71% 0.0 mm 176 W/m2
13:16 13.8 °C 8.8 °C 1010.7 hPa SW 6.1 km/h 13.4 km/h 72% 0.0 mm 154 W/m2
13:21 13.5 °C 8.8 °C 1010.7 hPa SSW 6.1 km/h 13.4 km/h 73% 0.0 mm 180 W/m2
13:26 13.5 °C 8.6 °C 1010.4 hPa SSW 7.2 km/h 12.2 km/h 72% 0.0 mm 176 W/m2
13:45 13.9 °C 9.3 °C 1010.7 hPa SW 7.2 km/h 11.1 km/h 74% 0.0 mm 287 W/m2
13:50 14.1 °C 9.3 °C 1010.7 hPa SW 3.5 km/h 11.1 km/h 73% 0.0 mm 317 W/m2
13:55 14.7 °C 9.7 °C 1010.4 hPa SW 3.5 km/h 11.1 km/h 72% 0.0 mm 706 W/m2
14:00 15.8 °C 10.1 °C 1010.4 hPa South 3.5 km/h 11.1 km/h 69% 0.0 mm 707 W/m2
14:05 15.6 °C 9.5 °C 1010.4 hPa South 2.6 km/h 12.2 km/h 67% 0.0 mm 645 W/m2
14:10 15.9 °C 9.8 °C 1010.0 hPa SSW 6.1 km/h 12.2 km/h 67% 0.0 mm 487 W/m2
14:15 15.9 °C 9.6 °C 1010.0 hPa SSW 9.7 km/h 13.4 km/h 66% 0.0 mm 328 W/m2
14:20 15.6 °C 9.3 °C 1010.0 hPa SSW 1.1 km/h 13.4 km/h 66% 0.0 mm 759 W/m2
14:25 16.0 °C 9.4 °C 1010.0 hPa South 1.1 km/h 13.4 km/h 65% 0.0 mm 655 W/m2
14:30 16.7 °C 9.9 °C 1009.7 hPa SSE 6.1 km/h 18.3 km/h 64% 0.0 mm 413 W/m2
14:35 15.9 °C 9.3 °C 1009.7 hPa South 6.1 km/h 18.3 km/h 65% 0.0 mm 228 W/m2
14:40 15.2 °C 9.1 °C 1010.0 hPa SSW 6.1 km/h 12.2 km/h 67% 0.0 mm 642 W/m2
14:45 15.8 °C 9.9 °C 1009.7 hPa SSW 5.0 km/h 13.4 km/h 68% 0.0 mm 636 W/m2
14:50 15.8 °C 9.4 °C 1009.4 hPa SSW 5.0 km/h 13.4 km/h 66% 0.0 mm 370 W/m2
14:55 15.6 °C 9.5 °C 1009.4 hPa SSW 6.1 km/h 13.4 km/h 67% 0.0 mm 575 W/m2
15:00 15.4 °C 9.3 °C 1009.4 hPa SW 8.7 km/h 15.8 km/h 67% 0.0 mm 565 W/m2
15:06 15.9 °C 9.8 °C 1009.4 hPa SSW 5.0 km/h 15.8 km/h 67% 0.0 mm 579 W/m2
15:11 16.0 °C 9.4 °C 1009.4 hPa Calm   12.2 km/h 65% 0.0 mm 137 W/m2
15:16 16.9 °C 11.2 °C 1009.4 hPa South 7.2 km/h 12.2 km/h 69% 0.0 mm 545 W/m2
15:21 16.7 °C 11.0 °C 1009.0 hPa SSE 3.5 km/h 12.2 km/h 69% 0.0 mm 486 W/m2
15:26 16.7 °C 10.8 °C 1009.0 hPa SSE 7.2 km/h 12.2 km/h 68% 0.0 mm 438 W/m2
15:31 16.3 °C 10.4 °C 1008.7 hPa SSE 2.6 km/h 14.8 km/h 68% 0.0 mm 542 W/m2
15:36 16.8 °C 10.9 °C 1008.7 hPa SSE 5.0 km/h 14.8 km/h 68% 0.0 mm 267 W/m2
15:41 16.1 °C 10.2 °C 1008.7 hPa SSE 6.1 km/h 11.1 km/h 68% 0.0 mm 242 W/m2
15:46 15.9 °C 10.7 °C 1008.7 hPa South 7.2 km/h 11.1 km/h 71% 0.0 mm 238 W/m2
15:51 15.4 °C 10.4 °C 1008.7 hPa SSE 1.1 km/h 11.1 km/h 72% 0.0 mm 227 W/m2
15:56 15.4 °C 10.4 °C 1008.7 hPa Calm   11.1 km/h 72% 0.0 mm 222 W/m2
16:01 15.3 °C 10.1 °C 1008.4 hPa SSE 5.0 km/h 8.7 km/h 71% 0.0 mm 228 W/m2
16:06 15.2 °C 10.2 °C 1008.4 hPa SSE 5.0 km/h 9.7 km/h 72% 0.0 mm 343 W/m2
16:11 15.5 °C 9.6 °C 1008.4 hPa South 5.0 km/h 9.7 km/h 68% 0.0 mm 291 W/m2
16:17 15.8 °C 10.1 °C 1008.0 hPa South 5.0 km/h 11.1 km/h 69% 0.0 mm 510 W/m2
16:22 15.7 °C 10.1 °C 1008.0 hPa SSW 7.2 km/h 11.1 km/h 69% 0.0 mm 189 W/m2
16:27 15.6 °C 9.5 °C 1008.0 hPa SSW 3.5 km/h 12.2 km/h 67% 0.0 mm 413 W/m2
16:28 15.7 °C 9.6 °C 1008.0 hPa SSW 3.5 km/h 12.2 km/h 67% 0.0 mm 398 W/m2
16:33 16.3 °C 9.7 °C 1008.0 hPa South 3.5 km/h 12.2 km/h 65% 0.0 mm 359 W/m2
16:38 16.2 °C 9.4 °C 1007.7 hPa South 2.6 km/h 11.1 km/h 64% 0.0 mm 340 W/m2
16:43 16.3 °C 9.7 °C 1007.7 hPa South 2.6 km/h 11.1 km/h 65% 0.0 mm 328 W/m2
16:48 16.4 °C 9.1 °C 1007.7 hPa South 2.6 km/h 13.4 km/h 62% 0.0 mm 320 W/m2
16:53 16.8 °C 9.7 °C 1007.7 hPa South 5.0 km/h 13.4 km/h 63% 0.0 mm 308 W/m2
17:02 17.5 °C 10.2 °C 1007.7 hPa SSE 1.1 km/h 7.2 km/h 62% 0.0 mm 287 W/m2
17:07 17.2 °C 9.4 °C 1007.3 hPa Calm   11.1 km/h 60% 0.0 mm 280 W/m2
17:12 17.5 °C 9.9 °C 1007.7 hPa ESE 2.6 km/h 11.1 km/h 61% 0.0 mm 275 W/m2
17:17 16.9 °C 9.6 °C 1007.3 hPa Calm   8.7 km/h 62% 0.0 mm 256 W/m2
17:22 17.5 °C 9.9 °C 1007.3 hPa SE 5.0 km/h 8.7 km/h 61% 0.0 mm 243 W/m2
17:27 17.0 °C 9.7 °C 1007.3 hPa SSE 3.5 km/h 7.2 km/h 62% 0.0 mm 227 W/m2
17:32 17.2 °C 9.9 °C 1007.3 hPa SSE 2.6 km/h 7.2 km/h 62% 0.0 mm 215 W/m2
17:37 16.8 °C 9.7 °C 1007.3 hPa SSW 2.6 km/h 6.1 km/h 63% 0.0 mm 204 W/m2
17:42 16.6 °C 9.8 °C 1007.3 hPa Calm   8.7 km/h 64% 0.0 mm 193 W/m2
17:47 17.3 °C 10.2 °C 1007.3 hPa SSE 2.6 km/h 8.7 km/h 63% 0.0 mm 179 W/m2
17:52 16.6 °C 9.6 °C 1007.3 hPa Calm   7.2 km/h 63% 0.0 mm 167 W/m2
17:57 16.3 °C 9.3 °C 1007.3 hPa SE 2.6 km/h 6.1 km/h 63% 0.0 mm 94 W/m2
18:02 15.5 °C 9.4 °C 1007.0 hPa SE 3.5 km/h 6.1 km/h 67% 0.0 mm 52 W/m2
18:07 14.4 °C 9.2 °C 1007.0 hPa ESE 5.0 km/h 8.7 km/h 71% 0.0 mm 47 W/m2
18:12 14.0 °C 9.4 °C 1007.0 hPa Calm   8.7 km/h 74% 0.0 mm 45 W/m2
18:17 13.8 °C 9.7 °C 1007.0 hPa ESE 1.1 km/h 8.7 km/h 76% 0.0 mm 42 W/m2
18:22 13.8 °C 9.7 °C 1007.0 hPa SE 1.1 km/h 7.2 km/h 76% 0.0 mm 48 W/m2
18:27 14.4 °C 10.2 °C 1007.0 hPa Calm   8.7 km/h 76% 0.0 mm 53 W/m2
18:32 14.9 °C 10.3 °C 1007.0 hPa SE 2.6 km/h 8.7 km/h 74% 0.0 mm 44 W/m2
18:37 14.3 °C 9.7 °C 1006.7 hPa ESE 1.1 km/h 6.1 km/h 74% 0.0 mm 40 W/m2
18:42 13.8 °C 9.7 °C 1006.7 hPa East 2.6 km/h 6.1 km/h 76% 0.0 mm 37 W/m2
18:47 14.0 °C 9.8 °C 1006.7 hPa ESE 1.1 km/h 6.1 km/h 76% 0.0 mm 55 W/m2
18:52 14.2 °C 9.8 °C 1006.7 hPa SE 2.6 km/h 6.1 km/h 75% 0.0 mm 28 W/m2
18:57 13.6 °C 9.4 °C 1006.7 hPa SE 1.1 km/h 6.1 km/h 76% 0.0 mm 26 W/m2
19:02 13.3 °C 9.3 °C 1006.7 hPa Calm   6.1 km/h 77% 0.0 mm 26 W/m2
19:07 13.4 °C 9.7 °C 1006.7 hPa SE 1.1 km/h 3.5 km/h 78% 0.0 mm 19 W/m2
19:12 13.1 °C 9.3 °C 1006.7 hPa Calm   3.5 km/h 78% 0.0 mm 13 W/m2
19:17 12.9 °C 9.3 °C 1006.3 hPa Calm   3.5 km/h 79% 0.0 mm 9 W/m2
19:22 12.6 °C 9.2 °C 1006.7 hPa South 1.1 km/h 2.6 km/h 80% 0.0 mm 6 W/m2
19:27 12.5 °C 9.3 °C 1006.3 hPa Calm   2.6 km/h 81% 0.0 mm 2 W/m2
19:32 12.3 °C 9.1 °C 1006.3 hPa Calm   2.6 km/h 81% 0.0 mm 0 W/m2
19:37 12.2 °C 9.2 °C 1006.3 hPa Calm   2.6 km/h 82% 0.0 mm 0 W/m2
19:42 12.1 °C 9.1 °C 1006.3 hPa Calm   2.6 km/h 82% 0.0 mm 0 W/m2
19:52 11.8 °C 9.0 °C 1006.0 hPa Calm   1.1 km/h 83% 0.0 mm 0 W/m2
19:57 11.8 °C 9.2 °C 1006.0 hPa Calm     84% 0.0 mm 0 W/m2
20:02 11.6 °C 9.0 °C 1006.0 hPa Calm     84% 0.0 mm 0 W/m2
20:07 11.5 °C 9.1 °C 1006.0 hPa Calm     85% 0.0 mm 0 W/m2
20:12 11.4 °C 9.2 °C 1006.0 hPa Calm     86% 0.0 mm 0 W/m2
20:17 11.4 °C 9.3 °C 1006.0 hPa Calm   1.1 km/h 87% 0.0 mm 0 W/m2
20:27 11.1 °C 9.2 °C 1006.0 hPa Calm   5.0 km/h 88% 0.0 mm 0 W/m2
20:32 11.1 °C 9.3 °C 1006.0 hPa Calm   5.0 km/h 89% 0.0 mm 0 W/m2
20:37 10.9 °C 9.3 °C 1006.0 hPa Calm     90% 0.0 mm 0 W/m2
20:42 10.9 °C 9.3 °C 1005.6 hPa Calm     90% 0.0 mm 0 W/m2
20:48 10.9 °C 9.5 °C 1006.0 hPa Calm   2.6 km/h 91% 0.0 mm 0 W/m2
20:53 10.8 °C 9.6 °C 1006.0 hPa North 2.6 km/h 3.5 km/h 92% 0.0 mm 0 W/m2
20:58 10.7 °C 9.6 °C 1006.0 hPa Calm   5.0 km/h 93% 0.0 mm 0 W/m2
21:03 10.6 °C 9.5 °C 1006.0 hPa NNW 3.5 km/h 5.0 km/h 93% 0.0 mm 0 W/m2
21:08 10.5 °C 9.6 °C 1005.6 hPa Calm   5.0 km/h 94% 0.0 mm 0 W/m2
21:13 10.4 °C 9.5 °C 1005.6 hPa Calm   5.0 km/h 94% 0.0 mm 0 W/m2
21:18 10.2 °C 9.3 °C 1005.6 hPa Calm   2.6 km/h 94% 0.0 mm 0 W/m2
21:23 10.1 °C 9.2 °C 1005.6 hPa Calm   2.6 km/h 94% 0.0 mm 0 W/m2
21:28 10.0 °C 9.1 °C 1005.6 hPa North 1.1 km/h 2.6 km/h 94% 0.0 mm 0 W/m2
21:33 9.9 °C 9.1 °C 1005.6 hPa Calm   2.6 km/h 95% 0.0 mm 0 W/m2
21:38 9.7 °C 8.9 °C 1005.6 hPa Calm   2.6 km/h 95% 0.0 mm 0 W/m2
21:43 9.6 °C 9.0 °C 1005.3 hPa NW 1.1 km/h 3.5 km/h 96% 0.0 mm 0 W/m2
21:48 9.4 °C 8.8 °C 1005.6 hPa NNW 2.6 km/h 5.0 km/h 96% 0.0 mm 0 W/m2
21:53 9.2 °C 8.6 °C 1005.6 hPa NNW 1.1 km/h 5.0 km/h 96% 0.0 mm 0 W/m2
21:58 9.1 °C 8.5 °C 1005.6 hPa NNW 2.6 km/h 5.0 km/h 96% 0.0 mm 0 W/m2
22:03 8.9 °C 8.6 °C 1005.3 hPa NNW 1.1 km/h 3.5 km/h 98% 0.0 mm 0 W/m2
22:08 8.7 °C 8.4 °C 1005.3 hPa Calm   3.5 km/h 98% 0.0 mm 0 W/m2
22:13 8.7 °C 8.4 °C 1005.3 hPa Calm   3.5 km/h 98% 0.0 mm 0 W/m2
22:18 8.7 °C 8.6 °C 1005.3 hPa Calm   3.5 km/h 99% 0.0 mm 0 W/m2
22:23 8.7 °C 8.6 °C 1005.0 hPa Calm   3.5 km/h 99% 0.0 mm 0 W/m2
22:28 8.7 °C 8.6 °C 1005.0 hPa Calm   2.6 km/h 99% 0.0 mm 0 W/m2
22:33 8.5 °C 8.3 °C 1005.0 hPa Calm   2.6 km/h 99% 0.0 mm 0 W/m2
22:38 8.5 °C 8.3 °C 1005.0 hPa NNW 1.1 km/h 3.5 km/h 99% 0.0 mm 0 W/m2
22:43 8.5 °C 8.3 °C 1005.0 hPa North 1.1 km/h 3.5 km/h 99% 0.0 mm 0 W/m2
22:48 8.4 °C 8.3 °C 1004.6 hPa Calm   3.5 km/h 99% 0.0 mm 0 W/m2
22:53 8.4 °C 8.3 °C 1004.6 hPa NW 1.1 km/h 2.6 km/h 99% 0.0 mm 0 W/m2
22:58 8.3 °C 8.2 °C 1004.6 hPa NW 2.6 km/h 5.0 km/h 99% 0.0 mm 0 W/m2
23:03 8.2 °C 8.1 °C 1004.6 hPa NNW 2.6 km/h 5.0 km/h 99% 0.0 mm 0 W/m2
23:08 8.0 °C 7.8 °C 1004.6 hPa Calm   5.0 km/h 99% 0.0 mm 0 W/m2
23:13 7.9 °C 7.4 °C 1004.6 hPa Calm   3.5 km/h 97% 0.0 mm 0 W/m2
23:18 7.9 °C 7.4 °C 1004.3 hPa North 1.1 km/h 5.0 km/h 97% 0.0 mm 0 W/m2
23:23 7.8 °C 7.3 °C 1004.6 hPa NNW 1.1 km/h 5.0 km/h 97% 0.0 mm 0 W/m2
23:28 7.8 °C 7.3 °C 1004.3 hPa NNW 2.6 km/h 3.5 km/h 97% 0.0 mm 0 W/m2
23:33 7.8 °C 7.3 °C 1004.3 hPa NNW 1.1 km/h 3.5 km/h 97% 0.0 mm 0 W/m2
23:38 7.7 °C 7.3 °C 1003.9 hPa Calm   3.5 km/h 97% 0.0 mm 0 W/m2
23:43 7.7 °C 7.3 °C 1003.9 hPa NNW 2.6 km/h 3.5 km/h 97% 0.0 mm 0 W/m2
23:48 7.6 °C 7.2 °C 1003.9 hPa NW 2.6 km/h 5.0 km/h 97% 0.0 mm 0 W/m2
23:53 7.5 °C 7.1 °C 1003.9 hPa NNW 1.1 km/h 5.0 km/h 97% 0.0 mm 0 W/m2
23:58 7.4 °C 6.9 °C 1003.6 hPa Calm   5.0 km/h 97% 0.0 mm 0 W/m2
Northern Hawkes Bay. New Zealand Historic Data
Compliments of Weather Underground - 2 mb